Time;durP1;ratioP1;P1;durP2;ratioP2;P2;SDS_P1;SDS_P2;PMS_P1;PMS_P2;Temp;Humidity;BMP_temperature;BMP_pressure;BME280_temperature;BME280_humidity;BME280_pressure;Samples;Min_cycle;Max_cycle;Signal;HPM_P1;HPM_P2
2022/06/24 00:01:16;;;;;;;32.80;27.30;;;;;;;;;;104479;1293;22867;-26
2022/06/24 00:03:53;;;;;;;25.90;18.70;;;;;;;;;;104534;1293;22594;-24
2022/06/24 00:06:34;;;;;;;50.30;39.10;;;;;;;;;;104576;1293;22668;-31
2022/06/24 00:09:12;;;;;;;36.10;31.70;;;;;;;;;;104587;1293;26519;-29
2022/06/24 00:11:53;;;;;;;13.40;8.90;;;;;;;;;;104521;1293;22583;-28
2022/06/24 00:14:30;;;;;;;25.00;21.80;;;;;;;;;;104401;1294;22586;-30
2022/06/24 00:17:08;;;;;;;31.20;28.10;;;;;;;;;;104477;1293;22561;-25
2022/06/24 00:19:49;;;;;;;17.50;14.80;;;;;;;;;;104532;1292;22597;-30
2022/06/24 00:22:27;;;;;;;17.70;16.00;;;;;;;;;;104575;1292;22681;-24
2022/06/24 00:25:06;;;;;;;13.90;11.80;;;;;;;;;;104571;1293;22641;-28
2022/06/24 00:27:44;;;;;;;8.70;7.80;;;;;;;;;;104461;1292;22626;-28
2022/06/24 00:30:21;;;;;;;19.20;15.20;;;;;;;;;;104254;1293;22624;-25
2022/06/24 00:33:02;;;;;;;24.20;21.70;;;;;;;;;;104557;1292;22573;-25
2022/06/24 00:35:41;;;;;;;6.50;4.60;;;;;;;;;;104599;1292;22573;-24
2022/06/24 00:38:22;;;;;;;4.80;3.10;;;;;;;;;;104218;1295;22654;-24
2022/06/24 00:41:02;;;;;;;36.70;27.50;;;;;;;;;;104409;1294;22695;-24
2022/06/24 00:43:40;;;;;;;50.00;36.20;;;;;;;;;;104529;1293;22640;-28
2022/06/24 00:46:19;;;;;;;62.20;50.50;;;;;;;;;;104433;1292;22575;-28
2022/06/24 00:48:57;;;;;;;129.30;85.10;;;;;;;;;;104562;1296;22847;-29
2022/06/24 00:51:36;;;;;;;67.20;46.40;;;;;;;;;;104577;1294;22656;-25
2022/06/24 00:54:15;;;;;;;28.30;20.90;;;;;;;;;;104417;1292;22724;-24
2022/06/24 00:56:55;;;;;;;26.20;20.80;;;;;;;;;;104448;1293;22788;-31
2022/06/24 00:59:33;;;;;;;42.90;38.30;;;;;;;;;;104496;1292;22571;-25
2022/06/24 01:02:11;;;;;;;25.20;17.70;;;;;;;;;;104530;1293;22635;-28
2022/06/24 01:04:48;;;;;;;31.90;28.60;;;;;;;;;;104542;1293;22682;-29
2022/06/24 01:07:25;;;;;;;25.40;22.90;;;;;;;;;;104211;1294;23084;-28
2022/06/24 01:10:03;;;;;;;10.60;9.60;;;;;;;;;;104458;1296;22870;-25
2022/06/24 01:12:40;;;;;;;4.50;3.90;;;;;;;;;;104505;1293;22553;-28
2022/06/24 01:15:18;;;;;;;9.50;2.60;;;;;;;;;;104543;1293;22580;-24
2022/06/24 01:17:55;;;;;;;7.00;6.00;;;;;;;;;;104474;1292;22556;-28
2022/06/24 01:20:33;;;;;;;16.60;14.10;;;;;;;;;;104081;1294;22576;-30
2022/06/24 01:23:10;;;;;;;5.30;4.70;;;;;;;;;;104513;1296;22718;-30
2022/06/24 01:25:48;;;;;;;20.00;15.50;;;;;;;;;;104364;1294;22550;-24
2022/06/24 01:28:25;;;;;;;14.00;8.80;;;;;;;;;;104499;1294;22576;-24
2022/06/24 01:31:02;;;;;;;17.50;14.00;;;;;;;;;;104423;1295;22556;-27
2022/06/24 01:33:40;;;;;;;9.80;7.40;;;;;;;;;;104550;1293;22630;-28
2022/06/24 01:36:17;;;;;;;10.50;9.50;;;;;;;;;;104529;1293;22720;-29
2022/06/24 01:38:54;;;;;;;10.90;10.00;;;;;;;;;;104510;1296;22678;-28
2022/06/24 01:41:32;;;;;;;25.50;18.40;;;;;;;;;;104443;1294;22563;-24
2022/06/24 01:44:09;;;;;;;28.90;23.90;;;;;;;;;;104458;1293;22871;-24
2022/06/24 01:46:46;;;;;;;34.30;27.70;;;;;;;;;;104429;1296;22825;-28
2022/06/24 01:49:24;;;;;;;12.20;7.80;;;;;;;;;;104449;1296;22565;-28
2022/06/24 01:52:01;;;;;;;17.60;15.90;;;;;;;;;;104490;1296;22575;-24
2022/06/24 01:54:38;;;;;;;6.60;6.00;;;;;;;;;;104570;1296;22718;-25
2022/06/24 01:57:16;;;;;;;13.60;5.80;;;;;;;;;;104159;1294;22583;-24
2022/06/24 01:59:53;;;;;;;5.50;3.00;;;;;;;;;;104487;1294;22566;-24
2022/06/24 02:02:30;;;;;;;11.70;5.60;;;;;;;;;;104292;1294;22780;-27
2022/06/24 02:05:08;;;;;;;3.10;2.60;;;;;;;;;;104355;1294;22582;-30
2022/06/24 02:07:45;;;;;;;3.80;2.80;;;;;;;;;;104282;1295;22721;-30
2022/06/24 02:15:45;;;;;;;12.20;8.00;;;;;;;;;;104255;1294;23036;-25
2022/06/24 02:18:22;;;;;;;9.20;4.00;;;;;;;;;;104275;1294;25015;-24
2022/06/24 02:21:00;;;;;;;3.80;3.30;;;;;;;;;;104494;1293;22588;-29
2022/06/24 02:23:37;;;;;;;3.10;2.80;;;;;;;;;;104540;1296;22556;-28
2022/06/24 02:26:15;;;;;;;4.90;4.00;;;;;;;;;;104379;1295;22553;-28
2022/06/24 02:28:52;;;;;;;9.60;5.10;;;;;;;;;;104426;1294;22574;-31
2022/06/24 02:31:30;;;;;;;9.50;8.50;;;;;;;;;;104325;1294;22572;-24
2022/06/24 02:34:07;;;;;;;12.20;4.50;;;;;;;;;;104236;1295;22551;-29
2022/06/24 02:36:44;;;;;;;11.90;9.40;;;;;;;;;;104405;1295;22588;-28
2022/06/24 02:39:22;;;;;;;11.80;7.70;;;;;;;;;;104441;1293;22573;-25
2022/06/24 02:41:59;;;;;;;14.70;7.70;;;;;;;;;;104442;1296;22567;-28
2022/06/24 02:44:36;;;;;;;7.70;4.40;;;;;;;;;;104577;1293;22551;-30
2022/06/24 02:47:14;;;;;;;12.80;4.50;;;;;;;;;;104345;1294;22659;-29
2022/06/24 02:49:51;;;;;;;7.70;3.00;;;;;;;;;;104394;1294;22656;-31
2022/06/24 02:52:28;;;;;;;5.00;3.90;;;;;;;;;;104620;1293;22573;-30
2022/06/24 02:55:06;;;;;;;5.70;4.00;;;;;;;;;;104649;1293;22566;-28
2022/06/24 02:57:43;;;;;;;3.90;2.90;;;;;;;;;;104625;1293;22562;-28
2022/06/24 03:00:21;;;;;;;5.00;4.30;;;;;;;;;;104604;1293;22545;-29
2022/06/24 03:02:58;;;;;;;4.10;3.70;;;;;;;;;;104608;1293;22572;-28
2022/06/24 03:05:35;;;;;;;5.40;2.60;;;;;;;;;;104636;1293;22556;-28
2022/06/24 03:08:13;;;;;;;4.70;3.20;;;;;;;;;;104609;1293;22579;-28
2022/06/24 03:10:50;;;;;;;11.20;3.20;;;;;;;;;;104669;1293;22553;-25
2022/06/24 03:13:28;;;;;;;6.10;3.10;;;;;;;;;;104589;1293;22570;-29
2022/06/24 03:16:05;;;;;;;5.50;3.70;;;;;;;;;;104600;1293;22545;-28
2022/06/24 03:18:43;;;;;;;3.40;2.80;;;;;;;;;;104666;1293;22631;-28
2022/06/24 03:21:20;;;;;;;3.80;2.90;;;;;;;;;;104633;1292;22553;-29
2022/06/24 03:23:57;;;;;;;6.30;2.80;;;;;;;;;;104586;1293;22587;-23
2022/06/24 03:26:35;;;;;;;4.70;2.50;;;;;;;;;;104623;1292;22572;-28
2022/06/24 03:29:12;;;;;;;7.90;2.50;;;;;;;;;;104636;1293;22591;-27
2022/06/24 03:31:49;;;;;;;9.80;2.60;;;;;;;;;;104602;1293;22554;-25
2022/06/24 03:34:27;;;;;;;6.00;2.80;;;;;;;;;;104620;1293;22557;-29
2022/06/24 03:37:04;;;;;;;4.30;3.50;;;;;;;;;;104673;1293;22570;-24
2022/06/24 03:39:41;;;;;;;19.70;2.60;;;;;;;;;;104648;1293;22556;-25
2022/06/24 03:42:19;;;;;;;3.50;2.80;;;;;;;;;;104617;1293;22570;-29
2022/06/24 03:44:56;;;;;;;6.10;2.40;;;;;;;;;;104654;1293;23066;-26
2022/06/24 03:47:33;;;;;;;4.60;2.40;;;;;;;;;;104626;1292;22631;-29
2022/06/24 03:50:11;;;;;;;4.50;2.20;;;;;;;;;;104620;1293;22876;-29
2022/06/24 03:52:48;;;;;;;5.30;2.70;;;;;;;;;;104619;1293;22850;-31
2022/06/24 03:55:25;;;;;;;4.60;2.50;;;;;;;;;;104637;1293;22557;-31
2022/06/24 03:58:02;;;;;;;3.90;3.10;;;;;;;;;;104660;1293;22732;-28
2022/06/24 04:00:40;;;;;;;2.00;1.80;;;;;;;;;;104641;1293;23009;-25
2022/06/24 04:03:17;;;;;;;5.20;2.20;;;;;;;;;;104649;1293;22560;-29
2022/06/24 04:05:54;;;;;;;2.90;1.80;;;;;;;;;;104639;1293;22879;-31
2022/06/24 04:08:32;;;;;;;7.00;3.10;;;;;;;;;;104649;1293;22545;-29
2022/06/24 04:11:10;;;;;;;12.10;2.80;;;;;;;;;;104642;1293;22583;-29
2022/06/24 04:13:47;;;;;;;2.80;2.50;;;;;;;;;;104630;1293;22556;-30
2022/06/24 04:16:24;;;;;;;4.40;3.40;;;;;;;;;;104624;1293;22575;-29
2022/06/24 04:19:02;;;;;;;7.90;2.80;;;;;;;;;;104658;1293;22572;-25
2022/06/24 04:21:39;;;;;;;5.70;2.30;;;;;;;;;;104631;1293;22563;-24
2022/06/24 04:24:17;;;;;;;4.20;2.10;;;;;;;;;;104630;1293;25312;-25
2022/06/24 04:26:54;;;;;;;3.60;2.50;;;;;;;;;;104287;1293;22703;-29
2022/06/24 04:29:31;;;;;;;6.30;2.40;;;;;;;;;;104678;1293;22547;-28
2022/06/24 04:32:09;;;;;;;2.40;1.90;;;;;;;;;;104686;1293;22720;-25
2022/06/24 04:34:46;;;;;;;3.50;2.50;;;;;;;;;;104728;1293;22576;-29
2022/06/24 04:37:24;;;;;;;4.60;1.70;;;;;;;;;;104673;1293;22720;-30
2022/06/24 04:40:02;;;;;;;7.20;2.50;;;;;;;;;;104654;1293;22557;-31
2022/06/24 04:42:40;;;;;;;2.00;1.60;;;;;;;;;;104656;1293;22580;-25
2022/06/24 04:45:17;;;;;;;7.00;1.90;;;;;;;;;;104670;1293;22576;-26
2022/06/24 04:47:55;;;;;;;4.60;1.90;;;;;;;;;;104698;1293;22582;-28
2022/06/24 04:50:32;;;;;;;2.10;1.70;;;;;;;;;;104333;1293;22557;-31
2022/06/24 04:53:09;;;;;;;3.50;1.60;;;;;;;;;;104683;1293;22596;-29
2022/06/24 04:55:47;;;;;;;7.40;1.70;;;;;;;;;;104339;1293;22643;-30
2022/06/24 04:58:24;;;;;;;2.20;1.50;;;;;;;;;;104674;1293;22578;-26
2022/06/24 05:01:01;;;;;;;2.50;1.60;;;;;;;;;;104674;1293;22557;-29
2022/06/24 05:03:39;;;;;;;11.50;2.20;;;;;;;;;;104665;1293;22637;-27
2022/06/24 05:06:16;;;;;;;2.90;1.70;;;;;;;;;;104674;1293;22737;-30
2022/06/24 05:08:53;;;;;;;2.20;1.40;;;;;;;;;;104650;1293;22626;-26
2022/06/24 05:11:31;;;;;;;4.00;1.70;;;;;;;;;;104655;1293;22553;-25
2022/06/24 05:14:09;;;;;;;3.00;1.30;;;;;;;;;;104652;1293;22557;-26
2022/06/24 05:16:46;;;;;;;2.40;1.80;;;;;;;;;;104646;1293;23038;-26
2022/06/24 05:19:23;;;;;;;3.10;1.30;;;;;;;;;;104655;1293;22619;-26
2022/06/24 05:22:01;;;;;;;2.50;1.90;;;;;;;;;;104683;1293;22586;-26
2022/06/24 05:24:38;;;;;;;1.60;1.10;;;;;;;;;;104679;1292;22585;-29
2022/06/24 05:27:15;;;;;;;2.10;1.30;;;;;;;;;;104687;1293;22570;-26
2022/06/24 05:29:53;;;;;;;5.60;3.60;;;;;;;;;;104301;1293;22554;-26
2022/06/24 05:32:30;;;;;;;3.40;1.50;;;;;;;;;;104662;1292;22553;-26
2022/06/24 05:35:07;;;;;;;4.10;1.60;;;;;;;;;;104657;1293;22557;-28
2022/06/24 05:37:45;;;;;;;3.10;1.80;;;;;;;;;;104636;1293;22553;-29
2022/06/24 05:40:22;;;;;;;0.90;0.80;;;;;;;;;;104686;1292;22665;-25
2022/06/24 05:42:59;;;;;;;2.20;1.10;;;;;;;;;;104688;1293;22712;-25
2022/06/24 05:45:37;;;;;;;1.20;1.10;;;;;;;;;;104679;1293;22573;-26
2022/06/24 05:48:14;;;;;;;3.30;1.20;;;;;;;;;;104636;1293;22551;-27
2022/06/24 05:50:51;;;;;;;2.40;1.60;;;;;;;;;;104614;1293;22718;-28
2022/06/24 05:56:09;;;;;;;1.90;1.10;;;;;;;;;;104680;1293;23928;-30
2022/06/24 05:58:47;;;;;;;1.80;1.20;;;;;;;;;;104702;1293;22570;-25
2022/06/24 06:01:25;;;;;;;1.60;1.20;;;;;;;;;;104659;1293;22563;-29
2022/06/24 06:04:02;;;;;;;2.20;1.20;;;;;;;;;;104669;1293;22710;-23
2022/06/24 06:06:40;;;;;;;3.90;1.10;;;;;;;;;;104686;1293;22673;-28
2022/06/24 06:09:17;;;;;;;12.70;2.10;;;;;;;;;;104636;1293;22577;-28
2022/06/24 06:11:56;;;;;;;1.50;1.20;;;;;;;;;;104649;1293;22671;-25
2022/06/24 06:14:33;;;;;;;3.30;1.50;;;;;;;;;;104685;1293;22550;-25
2022/06/24 06:17:11;;;;;;;1.90;1.50;;;;;;;;;;104699;1293;22623;-28
2022/06/24 06:19:48;;;;;;;0.70;0.60;;;;;;;;;;104654;1293;22573;-24
2022/06/24 06:22:25;;;;;;;1.00;0.70;;;;;;;;;;104643;1293;22543;-28
2022/06/24 06:25:03;;;;;;;3.80;0.90;;;;;;;;;;104687;1293;22553;-24
2022/06/24 06:27:40;;;;;;;0.80;0.60;;;;;;;;;;104655;1293;22591;-28
2022/06/24 06:30:17;;;;;;;1.50;0.80;;;;;;;;;;104696;1293;22548;-30
2022/06/24 06:32:55;;;;;;;2.00;1.10;;;;;;;;;;104723;1293;22547;-30
2022/06/24 06:35:32;;;;;;;1.80;1.10;;;;;;;;;;104676;1293;22660;-30
2022/06/24 06:38:09;;;;;;;1.80;1.00;;;;;;;;;;104679;1293;22756;-25
2022/06/24 06:40:47;;;;;;;1.80;0.50;;;;;;;;;;104692;1293;22560;-25
2022/06/24 06:43:24;;;;;;;3.70;1.00;;;;;;;;;;104737;1293;22672;-29
2022/06/24 06:46:01;;;;;;;1.90;1.10;;;;;;;;;;104662;1293;22710;-28
2022/06/24 06:48:39;;;;;;;0.80;0.50;;;;;;;;;;104638;1293;22711;-25
2022/06/24 06:51:16;;;;;;;11.70;0.80;;;;;;;;;;104654;1293;22516;-29
2022/06/24 06:53:53;;;;;;;1.10;0.80;;;;;;;;;;104641;1293;22585;-30
2022/06/24 06:56:31;;;;;;;1.20;0.70;;;;;;;;;;104656;1293;22540;-25
2022/06/24 06:59:08;;;;;;;1.80;0.70;;;;;;;;;;104637;1293;22634;-28
2022/06/24 07:01:45;;;;;;;0.80;0.60;;;;;;;;;;104653;1293;22550;-28
2022/06/24 07:04:22;;;;;;;1.20;0.80;;;;;;;;;;104629;1293;22565;-30
2022/06/24 07:07:00;;;;;;;5.50;0.90;;;;;;;;;;104632;1293;22572;-24
2022/06/24 07:09:37;;;;;;;0.80;0.70;;;;;;;;;;104227;1293;22552;-24
2022/06/24 07:12:15;;;;;;;1.40;0.60;;;;;;;;;;104664;1293;22546;-24
2022/06/24 07:14:52;;;;;;;1.00;0.80;;;;;;;;;;104606;1292;22585;-30
2022/06/24 07:17:29;;;;;;;1.10;0.70;;;;;;;;;;104614;1293;22581;-30
2022/06/24 07:20:07;;;;;;;2.00;1.00;;;;;;;;;;104380;1293;375229;-28
2022/06/24 07:22:44;;;;;;;1.60;0.70;;;;;;;;;;104618;1293;22554;-26
2022/06/24 07:25:22;;;;;;;3.80;0.70;;;;;;;;;;104678;1293;22573;-26
2022/06/24 07:27:59;;;;;;;4.20;0.90;;;;;;;;;;104670;1293;22652;-25
2022/06/24 07:30:36;;;;;;;1.10;0.80;;;;;;;;;;104627;1293;22562;-29
2022/06/24 07:33:14;;;;;;;0.90;0.80;;;;;;;;;;104651;1293;22642;-25
2022/06/24 07:35:51;;;;;;;0.80;0.60;;;;;;;;;;104654;1293;22569;-26
2022/06/24 07:38:28;;;;;;;1.30;0.80;;;;;;;;;;104634;1293;22565;-24
2022/06/24 07:41:08;;;;;;;3.30;0.80;;;;;;;;;;104627;1293;22613;-25
2022/06/24 07:43:45;;;;;;;7.90;0.80;;;;;;;;;;104620;1293;22569;-24
2022/06/24 07:46:22;;;;;;;6.90;0.70;;;;;;;;;;104230;1296;22564;-28
2022/06/24 07:49:00;;;;;;;1.20;0.90;;;;;;;;;;104654;1293;22642;-25
2022/06/24 07:51:37;;;;;;;0.80;0.60;;;;;;;;;;104603;1293;22602;-31
2022/06/24 07:54:15;;;;;;;1.00;0.70;;;;;;;;;;104655;1293;22586;-24
2022/06/24 07:59:33;;;;;;;2.10;0.70;;;;;;;;;;104702;1293;22579;-25
2022/06/24 08:02:11;;;;;;;1.20;0.70;;;;;;;;;;104640;1293;22627;-30
2022/06/24 08:04:50;;;;;;;1.80;0.70;;;;;;;;;;104690;1293;22572;-29
2022/06/24 08:07:27;;;;;;;9.80;0.80;;;;;;;;;;104678;1293;22701;-25
2022/06/24 08:10:05;;;;;;;11.30;1.30;;;;;;;;;;104673;1293;22669;-30
2022/06/24 08:12:42;;;;;;;0.60;0.60;;;;;;;;;;104674;1293;22560;-24
2022/06/24 08:15:19;;;;;;;0.90;0.70;;;;;;;;;;104627;1293;22557;-24
2022/06/24 08:17:57;;;;;;;1.30;0.80;;;;;;;;;;104624;1293;25325;-30
2022/06/24 08:20:34;;;;;;;1.80;0.80;;;;;;;;;;104642;1293;22650;-26
2022/06/24 08:23:11;;;;;;;0.80;0.70;;;;;;;;;;104667;1293;22551;-29
2022/06/24 08:25:49;;;;;;;3.30;0.90;;;;;;;;;;104616;1293;22556;-25
2022/06/24 08:28:26;;;;;;;3.80;0.90;;;;;;;;;;104643;1293;22596;-28
2022/06/24 08:31:03;;;;;;;1.70;0.70;;;;;;;;;;104627;1295;22569;-27
2022/06/24 08:33:40;;;;;;;7.20;0.90;;;;;;;;;;104620;1293;22589;-29
2022/06/24 08:36:18;;;;;;;3.70;0.90;;;;;;;;;;104706;1292;22571;-25
2022/06/24 08:38:55;;;;;;;4.60;0.60;;;;;;;;;;104629;1293;22553;-26
2022/06/24 08:41:32;;;;;;;9.30;1.20;;;;;;;;;;104622;1293;22624;-25
2022/06/24 08:44:10;;;;;;;3.70;0.80;;;;;;;;;;104626;1293;22577;-25
2022/06/24 08:46:47;;;;;;;1.20;0.70;;;;;;;;;;104685;1293;22713;-25
2022/06/24 08:49:24;;;;;;;4.60;0.90;;;;;;;;;;104681;1293;22712;-26
2022/06/24 08:52:02;;;;;;;1.30;0.80;;;;;;;;;;104670;1293;22564;-29
2022/06/24 08:54:41;;;;;;;2.10;0.90;;;;;;;;;;104458;1293;22718;-29
2022/06/24 08:57:18;;;;;;;5.20;1.50;;;;;;;;;;104682;1293;22576;-25
2022/06/24 08:59:55;;;;;;;30.60;2.00;;;;;;;;;;104703;1293;22588;-26
2022/06/24 09:02:33;;;;;;;2.50;1.30;;;;;;;;;;104693;1293;22558;-31
2022/06/24 09:05:11;;;;;;;4.40;1.30;;;;;;;;;;104204;1296;22582;-27
2022/06/24 09:07:48;;;;;;;1.60;1.10;;;;;;;;;;104662;1293;22544;-28
2022/06/24 09:10:25;;;;;;;5.40;1.20;;;;;;;;;;104716;1293;22552;-25
2022/06/24 09:13:03;;;;;;;3.30;1.80;;;;;;;;;;104693;1293;22573;-29
2022/06/24 09:15:41;;;;;;;2.80;1.10;;;;;;;;;;104653;1293;22551;-25
2022/06/24 09:18:22;;;;;;;2.70;0.60;;;;;;;;;;104681;1293;22582;-29
2022/06/24 09:20:59;;;;;;;7.10;1.20;;;;;;;;;;104695;1293;25272;-28
2022/06/24 09:23:50;;;;;;;8.50;1.20;;;;;;;;;;104660;1293;22573;-28
2022/06/24 09:26:30;;;;;;;6.00;0.90;;;;;;;;;;104664;1293;22556;-27
2022/06/24 09:29:10;;;;;;;1.20;0.90;;;;;;;;;;104680;1293;22818;-25
2022/06/24 09:31:47;;;;;;;3.70;0.90;;;;;;;;;;104654;1293;22636;-29
2022/06/24 09:34:24;;;;;;;3.40;1.10;;;;;;;;;;104696;1293;22573;-25
2022/06/24 09:37:02;;;;;;;2.60;1.90;;;;;;;;;;104694;1293;22639;-26
2022/06/24 09:39:39;;;;;;;3.40;1.30;;;;;;;;;;104660;1293;22569;-27
2022/06/24 09:42:18;;;;;;;13.50;0.70;;;;;;;;;;104691;1293;22557;-29
2022/06/24 09:44:56;;;;;;;4.10;1.20;;;;;;;;;;104677;1293;22579;-28
2022/06/24 09:47:36;;;;;;;6.40;2.00;;;;;;;;;;104673;1293;22575;-28
2022/06/24 09:50:14;;;;;;;6.10;1.80;;;;;;;;;;104763;1293;22553;-25
2022/06/24 09:52:51;;;;;;;4.30;2.90;;;;;;;;;;104735;1293;22551;-28
2022/06/24 09:55:29;;;;;;;8.20;1.70;;;;;;;;;;104672;1293;22644;-25
2022/06/24 09:58:06;;;;;;;2.00;1.10;;;;;;;;;;104650;1293;22570;-26
2022/06/24 10:00:45;;;;;;;1.80;1.30;;;;;;;;;;104709;1293;22569;-24
2022/06/24 10:03:22;;;;;;;2.30;0.70;;;;;;;;;;104673;1293;22558;-24
2022/06/24 10:06:01;;;;;;;2.70;1.40;;;;;;;;;;104620;1293;22547;-28
2022/06/24 10:08:38;;;;;;;2.50;1.10;;;;;;;;;;104665;1293;22573;-26
2022/06/24 10:11:16;;;;;;;3.80;1.20;;;;;;;;;;104717;1293;22579;-30
2022/06/24 10:13:54;;;;;;;1.80;0.80;;;;;;;;;;104271;1296;22729;-24
2022/06/24 10:16:31;;;;;;;9.80;1.40;;;;;;;;;;104654;1293;22569;-28
2022/06/24 10:19:09;;;;;;;2.60;1.20;;;;;;;;;;104651;1293;22576;-25
2022/06/24 10:21:47;;;;;;;2.50;1.50;;;;;;;;;;104683;1293;22570;-23
2022/06/24 10:24:25;;;;;;;3.70;1.50;;;;;;;;;;104688;1293;22561;-30
2022/06/24 10:27:02;;;;;;;1.30;0.80;;;;;;;;;;104306;1294;22567;-26
2022/06/24 10:29:39;;;;;;;12.80;5.10;;;;;;;;;;104638;1293;22560;-26
2022/06/24 10:32:17;;;;;;;10.10;3.60;;;;;;;;;;104651;1293;22583;-29
2022/06/24 10:34:56;;;;;;;2.30;1.00;;;;;;;;;;104664;1293;22553;-32
2022/06/24 10:37:36;;;;;;;9.50;1.50;;;;;;;;;;104668;1292;22556;-25
2022/06/24 10:40:22;;;;;;;3.80;1.90;;;;;;;;;;104645;1293;22582;-30
2022/06/24 10:43:03;;;;;;;1.30;0.80;;;;;;;;;;104655;1296;22580;-27
2022/06/24 10:45:40;;;;;;;2.30;1.00;;;;;;;;;;104690;1293;22862;-26
2022/06/24 10:48:36;;;;;;;1.70;1.00;;;;;;;;;;104657;1293;22576;-29
2022/06/24 10:51:13;;;;;;;3.10;1.30;;;;;;;;;;104662;1293;22575;-24
2022/06/24 10:53:54;;;;;;;1.30;1.10;;;;;;;;;;104665;1293;22550;-26
2022/06/24 10:56:36;;;;;;;1.60;1.10;;;;;;;;;;104708;1293;26506;-28
2022/06/24 10:59:14;;;;;;;4.80;0.90;;;;;;;;;;104399;1293;22550;-23
2022/06/24 11:01:52;;;;;;;1.40;1.00;;;;;;;;;;104682;1293;22611;-28
2022/06/24 11:04:29;;;;;;;7.90;1.20;;;;;;;;;;104655;1293;22553;-28
2022/06/24 11:07:09;;;;;;;1.70;1.00;;;;;;;;;;104659;1293;22572;-24
2022/06/24 11:09:46;;;;;;;5.00;0.90;;;;;;;;;;104264;1293;22654;-28
2022/06/24 11:12:27;;;;;;;11.80;1.40;;;;;;;;;;104644;1293;22571;-28
2022/06/24 11:15:04;;;;;;;2.10;0.70;;;;;;;;;;104636;1293;22578;-25
2022/06/24 11:17:42;;;;;;;2.20;1.50;;;;;;;;;;104650;1293;22745;-28
2022/06/24 11:20:19;;;;;;;1.10;1.00;;;;;;;;;;104641;1296;22565;-28
2022/06/24 11:22:56;;;;;;;1.50;0.70;;;;;;;;;;104628;1293;22729;-24
2022/06/24 11:25:34;;;;;;;1.80;0.80;;;;;;;;;;104644;1293;22564;-28
2022/06/24 11:28:14;;;;;;;3.30;0.60;;;;;;;;;;104613;1293;22560;-31
2022/06/24 11:30:52;;;;;;;7.20;0.80;;;;;;;;;;104703;1293;22578;-28
2022/06/24 11:33:30;;;;;;;1.80;0.80;;;;;;;;;;104639;1294;22557;-28
2022/06/24 11:36:07;;;;;;;2.60;0.90;;;;;;;;;;104689;1293;22661;-23
2022/06/24 11:38:48;;;;;;;0.60;0.50;;;;;;;;;;104678;1293;22551;-30
2022/06/24 11:41:27;;;;;;;0.70;0.60;;;;;;;;;;104711;1293;22550;-28
2022/06/24 11:44:04;;;;;;;2.10;0.70;;;;;;;;;;104670;1293;22577;-24
2022/06/24 11:46:45;;;;;;;1.80;0.80;;;;;;;;;;104312;1296;22583;-30
2022/06/24 11:49:22;;;;;;;2.30;0.70;;;;;;;;;;104693;1293;22575;-26
2022/06/24 11:52:01;;;;;;;1.30;0.60;;;;;;;;;;104620;1293;22599;-28
2022/06/24 11:54:38;;;;;;;1.10;0.90;;;;;;;;;;104701;1294;22573;-29
2022/06/24 11:57:15;;;;;;;1.90;1.20;;;;;;;;;;104666;1292;22564;-24
2022/06/24 11:59:55;;;;;;;0.90;0.80;;;;;;;;;;104696;1293;22548;-27
2022/06/24 12:02:32;;;;;;;10.20;0.90;;;;;;;;;;104719;1293;22776;-24
2022/06/24 12:05:10;;;;;;;10.30;0.80;;;;;;;;;;104662;1293;22540;-28
2022/06/24 12:07:47;;;;;;;4.60;0.80;;;;;;;;;;104656;1293;22565;-23
2022/06/24 12:10:24;;;;;;;1.80;1.00;;;;;;;;;;104448;1296;22728;-28
2022/06/24 12:13:05;;;;;;;2.00;0.90;;;;;;;;;;104669;1293;22707;-28
2022/06/24 12:15:51;;;;;;;1.70;0.70;;;;;;;;;;104624;1295;22497;-24
2022/06/24 12:18:29;;;;;;;0.50;0.50;;;;;;;;;;104414;1296;22614;-28
2022/06/24 12:21:07;;;;;;;1.00;0.70;;;;;;;;;;104641;1296;22556;-28
2022/06/24 12:23:44;;;;;;;2.80;0.80;;;;;;;;;;104649;1293;22558;-24
2022/06/24 12:26:22;;;;;;;3.20;1.50;;;;;;;;;;104696;1293;22569;-30
2022/06/24 12:29:00;;;;;;;1.40;0.70;;;;;;;;;;104387;1295;22575;-29
2022/06/24 12:31:38;;;;;;;4.10;1.10;;;;;;;;;;104610;1293;22598;-28
2022/06/24 12:34:23;;;;;;;5.30;0.50;;;;;;;;;;104651;1294;22712;-25
2022/06/24 12:37:02;;;;;;;3.70;0.90;;;;;;;;;;104629;1293;22709;-28
2022/06/24 12:39:40;;;;;;;1.40;0.80;;;;;;;;;;104644;1293;23014;-26
2022/06/24 12:42:17;;;;;;;1.20;0.80;;;;;;;;;;104670;1293;22588;-26
2022/06/24 12:44:59;;;;;;;0.60;0.40;;;;;;;;;;104347;1296;22655;-24
2022/06/24 12:53:00;;;;;;;3.60;0.70;;;;;;;;;;104390;1296;22666;-28
2022/06/24 12:55:38;;;;;;;2.30;1.40;;;;;;;;;;104687;1294;22750;-30
2022/06/24 12:58:15;;;;;;;4.80;1.10;;;;;;;;;;104647;1293;22575;-24
2022/06/24 13:00:52;;;;;;;2.30;1.50;;;;;;;;;;104651;1293;22991;-30
2022/06/24 13:03:30;;;;;;;18.40;9.50;;;;;;;;;;104664;1293;22583;-24
2022/06/24 13:06:07;;;;;;;3.80;0.90;;;;;;;;;;104649;1294;22572;-24
2022/06/24 13:08:44;;;;;;;1.90;1.10;;;;;;;;;;104647;1293;22573;-28
2022/06/24 13:11:22;;;;;;;7.20;4.10;;;;;;;;;;104623;1293;22557;-30
2022/06/24 13:13:59;;;;;;;1.80;1.00;;;;;;;;;;104680;1294;22553;-24
2022/06/24 13:16:36;;;;;;;2.40;2.00;;;;;;;;;;104660;1294;22580;-30
2022/06/24 13:19:14;;;;;;;1.00;0.80;;;;;;;;;;104628;1294;22554;-29
2022/06/24 13:21:52;;;;;;;1.10;0.80;;;;;;;;;;104671;1294;22576;-24
2022/06/24 13:24:30;;;;;;;3.40;3.10;;;;;;;;;;104643;1293;22577;-24
2022/06/24 13:27:07;;;;;;;2.80;1.80;;;;;;;;;;104628;1296;22614;-28
2022/06/24 13:29:45;;;;;;;2.60;1.90;;;;;;;;;;104629;1296;22563;-23
2022/06/24 13:32:22;;;;;;;1.40;0.90;;;;;;;;;;104661;1294;22552;-28
2022/06/24 13:34:59;;;;;;;2.10;1.20;;;;;;;;;;104650;1293;22580;-28
2022/06/24 13:37:37;;;;;;;5.50;0.90;;;;;;;;;;104687;1294;22587;-28
2022/06/24 13:40:14;;;;;;;1.60;0.90;;;;;;;;;;104694;1293;22566;-28
2022/06/24 13:42:51;;;;;;;1.60;0.70;;;;;;;;;;104649;1296;22550;-28
2022/06/24 13:45:29;;;;;;;2.10;0.60;;;;;;;;;;104671;1296;22646;-24
2022/06/24 13:48:06;;;;;;;2.20;0.90;;;;;;;;;;104655;1293;22583;-24
2022/06/24 13:50:44;;;;;;;2.30;0.50;;;;;;;;;;104629;1294;22837;-24
2022/06/24 13:53:21;;;;;;;0.50;0.50;;;;;;;;;;104632;1294;22585;-23
2022/06/24 13:55:59;;;;;;;2.20;1.00;;;;;;;;;;104672;1296;22576;-28
2022/06/24 13:58:36;;;;;;;0.70;0.50;;;;;;;;;;104681;1293;22577;-24
2022/06/24 14:01:15;;;;;;;2.70;0.80;;;;;;;;;;104655;1293;22573;-28
2022/06/24 14:03:52;;;;;;;3.00;0.70;;;;;;;;;;104634;1294;22588;-30
2022/06/24 14:06:29;;;;;;;2.00;0.90;;;;;;;;;;104697;1296;22575;-24
2022/06/24 14:09:07;;;;;;;9.80;9.10;;;;;;;;;;104668;1293;22672;-24
2022/06/24 14:11:44;;;;;;;1.70;1.30;;;;;;;;;;104655;1293;22595;-24
2022/06/24 14:14:21;;;;;;;2.90;1.60;;;;;;;;;;104655;1293;22557;-27
2022/06/24 14:16:59;;;;;;;0.50;0.50;;;;;;;;;;104645;1294;22629;-25
2022/06/24 14:19:36;;;;;;;1.30;0.60;;;;;;;;;;104650;1293;22587;-25
2022/06/24 14:22:13;;;;;;;1.40;0.50;;;;;;;;;;104642;1294;22757;-28
2022/06/24 14:24:51;;;;;;;5.60;0.70;;;;;;;;;;104636;1294;22547;-28
2022/06/24 14:27:28;;;;;;;1.30;0.70;;;;;;;;;;104683;1293;22626;-29
2022/06/24 14:30:06;;;;;;;6.30;0.70;;;;;;;;;;104624;1296;22565;-28
2022/06/24 14:32:43;;;;;;;0.90;0.50;;;;;;;;;;104637;1293;22598;-24
2022/06/24 14:35:21;;;;;;;0.90;0.70;;;;;;;;;;104642;1293;22558;-24
2022/06/24 14:40:39;;;;;;;1.70;0.90;;;;;;;;;;104712;1294;22682;-24
2022/06/24 14:43:16;;;;;;;1.50;0.80;;;;;;;;;;104613;1293;22585;-29
2022/06/24 14:45:53;;;;;;;0.90;0.70;;;;;;;;;;104609;1293;22551;-24
2022/06/24 14:48:31;;;;;;;2.90;1.80;;;;;;;;;;104624;1296;22615;-24
2022/06/24 14:51:08;;;;;;;7.10;5.10;;;;;;;;;;104433;1294;22837;-24
2022/06/24 14:53:45;;;;;;;4.60;0.80;;;;;;;;;;104607;1292;22690;-28
2022/06/24 14:56:23;;;;;;;14.10;5.70;;;;;;;;;;104618;1294;22575;-24
2022/06/24 14:59:01;;;;;;;3.90;2.80;;;;;;;;;;104633;1293;22560;-26
2022/06/24 15:01:38;;;;;;;19.80;10.60;;;;;;;;;;104606;1293;22564;-24
2022/06/24 15:04:15;;;;;;;2.10;1.20;;;;;;;;;;104591;1293;22594;-26
2022/06/24 15:06:53;;;;;;;8.80;1.60;;;;;;;;;;104601;1292;22563;-24
2022/06/24 15:09:30;;;;;;;2.30;1.40;;;;;;;;;;104597;1296;25261;-28
2022/06/24 15:12:08;;;;;;;2.30;1.60;;;;;;;;;;104614;1293;22547;-30
2022/06/24 15:14:45;;;;;;;3.40;1.70;;;;;;;;;;104600;1294;22571;-28
2022/06/24 15:17:23;;;;;;;1.50;1.40;;;;;;;;;;104612;1293;22560;-25
2022/06/24 15:20:00;;;;;;;1.20;0.70;;;;;;;;;;104260;1293;460720;-29
2022/06/24 15:22:38;;;;;;;2.50;1.50;;;;;;;;;;104620;1294;22553;-24
2022/06/24 15:25:16;;;;;;;1.80;1.00;;;;;;;;;;104568;1293;22602;-25
2022/06/24 15:27:53;;;;;;;1.30;0.90;;;;;;;;;;104597;1293;22576;-30
2022/06/24 15:30:31;;;;;;;1.50;1.40;;;;;;;;;;104360;1296;22776;-26
2022/06/24 15:33:08;;;;;;;1.30;1.00;;;;;;;;;;104621;1293;22557;-28
2022/06/24 15:35:45;;;;;;;1.30;1.00;;;;;;;;;;104603;1293;22503;-25
2022/06/24 15:38:23;;;;;;;3.40;0.70;;;;;;;;;;104608;1293;22592;-24
2022/06/24 15:41:03;;;;;;;0.90;0.80;;;;;;;;;;104609;1294;22569;-24
2022/06/24 15:43:41;;;;;;;1.40;0.80;;;;;;;;;;104593;1293;22671;-24
2022/06/24 15:46:19;;;;;;;2.40;0.90;;;;;;;;;;104598;1295;23085;-27